createdAt,value
2023-02-13T00:06:04.371Z,102631.66
2023-02-13T00:16:06.928Z,102640.69
2023-02-13T00:26:11.615Z,102627.31
2023-02-13T00:36:21.250Z,102616.78
2023-02-13T00:46:23.678Z,102614.16
2023-02-13T00:56:26.266Z,102617.69
2023-02-13T01:06:28.506Z,102613.56
2023-02-13T01:16:30.856Z,102622.31
2023-02-13T01:26:34.307Z,102618.63
2023-02-13T01:36:36.458Z,102613.31
2023-02-13T01:46:42.836Z,102609.38
2023-02-13T01:56:54.467Z,102605.97
2023-02-13T02:07:03.847Z,102612.81
2023-02-13T02:17:09.734Z,102591.56
2023-02-13T02:27:30.087Z,102588.19
2023-02-13T02:37:54.709Z,102598.78
2023-02-13T02:48:24.724Z,102588.41
2023-02-13T02:58:59.663Z,102589.13
2023-02-13T03:09:25.217Z,102580.91
2023-02-13T03:20:20.315Z,102594.44
2023-02-13T03:30:45.403Z,102597.56
2023-02-13T03:41:18.601Z,102592.03
2023-02-13T03:51:27.753Z,102609.72
2023-02-13T04:01:32.564Z,102615.06
2023-02-13T04:11:39.230Z,102609.06
2023-02-13T04:21:42.610Z,102600.75
2023-02-13T04:31:44.879Z,102597.19
2023-02-13T04:41:47.070Z,102608.38
2023-02-13T04:51:49.439Z,102597.19
2023-02-13T05:01:51.718Z,102595.03
2023-02-13T05:11:54.893Z,102596.13
2023-02-13T05:22:16.912Z,102597.56
2023-02-13T05:32:19.348Z,102590.78
2023-02-13T05:42:22.541Z,102582.81
2023-02-13T05:52:24.774Z,102573.44
2023-02-13T06:02:27.153Z,102582.38
2023-02-13T06:12:29.319Z,102598.09
2023-02-13T06:22:31.624Z,102584.69
2023-02-13T06:32:33.960Z,102583.81
2023-02-13T06:42:36.228Z,102587.03
2023-02-13T06:52:38.335Z,102591.72
2023-02-13T07:02:41.336Z,102588.53
2023-02-13T07:12:44.611Z,102601.81
2023-02-13T07:22:47.811Z,102607.41
2023-02-13T07:32:51.222Z,102600.69
2023-02-13T07:42:53.607Z,102606.56
2023-02-13T07:52:59.981Z,102621.88
2023-02-13T08:03:02.474Z,102626.28
2023-02-13T08:13:05.334Z,102624.22
2023-02-13T08:23:09.975Z,102629.63
2023-02-13T08:33:12.343Z,102627.78
2023-02-13T08:43:14.695Z,102619.56
2023-02-13T08:53:16.792Z,102623.41
2023-02-13T09:03:19.016Z,102623.25
2023-02-13T09:13:21.322Z,102607.19
2023-02-13T09:23:23.657Z,102615.44
2023-02-13T09:33:26.177Z,102612.78
2023-02-13T09:43:35.266Z,102603.03
2023-02-13T09:53:38.401Z,102610.25
2023-02-13T10:03:48.346Z,102618.31
2023-02-13T10:13:52.997Z,102617.03
2023-02-13T10:23:59.606Z,102621.94
2023-02-13T10:34:04.000Z,102618.59
2023-02-13T10:44:21.519Z,102612.28
2023-02-13T10:54:35.119Z,102603.34
2023-02-13T11:04:37.446Z,102596.03
2023-02-13T11:14:54.006Z,102573.59
2023-02-13T11:24:59.758Z,102565.69
2023-02-13T11:35:32.287Z,102563.47
2023-02-13T11:45:34.547Z,102546.53
2023-02-13T11:55:39.087Z,102538.81
2023-02-13T12:05:41.178Z,102534.00
2023-02-13T12:15:43.580Z,102521.00
2023-02-13T12:25:59.170Z,102502.06
2023-02-13T12:36:19.498Z,102481.94
2023-02-13T12:46:39.735Z,102474.34
2023-02-13T12:56:51.382Z,102462.16
2023-02-13T13:07:21.619Z,102455.47
2023-02-13T13:17:29.720Z,102439.56
2023-02-13T13:27:44.498Z,102449.03
2023-02-13T13:37:49.682Z,102438.09
2023-02-13T13:48:06.999Z,102423.31
2023-02-13T13:58:21.364Z,102428.94
2023-02-13T14:08:42.169Z,102420.94
2023-02-13T14:18:46.834Z,102418.44
2023-02-13T14:28:48.826Z,102420.44
2023-02-13T14:39:08.872Z,102401.41
2023-02-13T14:49:16.602Z,102388.78
2023-02-13T14:59:27.789Z,102397.78
2023-02-13T15:09:34.655Z,102396.66
2023-02-13T15:19:43.063Z,102395.06
2023-02-13T15:29:56.608Z,102391.44
2023-02-13T15:40:26.607Z,102385.50
2023-02-13T15:50:36.053Z,102382.16
2023-02-13T16:00:41.346Z,102387.63
2023-02-13T16:10:43.566Z,102390.03
2023-02-13T16:20:45.849Z,102378.41
2023-02-13T16:30:59.260Z,102376.75
2023-02-13T16:41:19.972Z,102381.94
2023-02-13T16:51:31.687Z,102379.69
2023-02-13T17:01:38.368Z,102390.41
2023-02-13T17:11:40.609Z,102412.38
2023-02-13T17:21:43.962Z,102412.94
2023-02-13T17:31:46.392Z,102412.34
2023-02-13T17:41:50.836Z,102420.94
2023-02-13T17:51:54.229Z,102418.38
2023-02-13T18:01:57.723Z,102434.41
2023-02-13T18:12:05.326Z,102428.22
2023-02-13T18:22:13.988Z,102428.25
2023-02-13T18:32:19.453Z,102431.81
2023-02-13T18:42:21.741Z,102434.66
2023-02-13T18:52:23.998Z,102437.47
2023-02-13T19:02:26.252Z,102445.75
2023-02-13T19:12:28.373Z,102427.56
2023-02-13T19:22:32.635Z,102435.25
2023-02-13T19:32:35.996Z,102432.53
2023-02-13T19:42:40.050Z,102423.94
2023-02-13T19:52:43.075Z,102433.94
2023-02-13T20:02:45.397Z,102435.00
2023-02-13T20:12:53.831Z,102444.47
2023-02-13T20:22:55.909Z,102434.38
2023-02-13T20:32:59.674Z,102424.38
2023-02-13T20:43:01.992Z,102419.03
2023-02-13T20:53:05.057Z,102425.03
2023-02-13T21:03:07.170Z,102420.63
2023-02-13T21:13:10.509Z,102428.25
2023-02-13T21:23:12.614Z,102429.50
2023-02-13T21:33:14.724Z,102429.13
2023-02-13T21:43:17.137Z,102425.47
